sensor_id;sensor_type;location;lat;lon;timestamp;pressure;altitude;pressure_sealevel;temperature;humidity
31681;BME280;18281;51.364;9.566;2023-04-01T00:00:07;98045.13;;;7.14;100.00
31681;BME280;18281;51.364;9.566;2023-04-01T00:02:33;98042.53;;;7.26;100.00
31681;BME280;18281;51.364;9.566;2023-04-01T00:04:58;98038.63;;;7.20;100.00
31681;BME280;18281;51.364;9.566;2023-04-01T00:07:24;98045.94;;;7.15;100.00
31681;BME280;18281;51.364;9.566;2023-04-01T00:09:49;98038.97;;;7.15;100.00
31681;BME280;18281;51.364;9.566;2023-04-01T00:12:15;98038.41;;;7.23;100.00
31681;BME280;18281;51.364;9.566;2023-04-01T00:14:40;98044.69;;;7.20;100.00
31681;BME280;18281;51.364;9.566;2023-04-01T00:17:06;98043.41;;;7.26;100.00
31681;BME280;18281;51.364;9.566;2023-04-01T00:19:31;98040.31;;;7.32;100.00
31681;BME280;18281;51.364;9.566;2023-04-01T00:21:57;98042.09;;;7.32;100.00
31681;BME280;18281;51.364;9.566;2023-04-01T00:24:24;98042.53;;;7.26;100.00
31681;BME280;18281;51.364;9.566;2023-04-01T00:26:50;98035.69;;;7.24;100.00
31681;BME280;18281;51.364;9.566;2023-04-01T00:29:15;98037.13;;;7.29;100.00
31681;BME280;18281;51.364;9.566;2023-04-01T00:31:41;98034.94;;;7.22;100.00
31681;BME280;18281;51.364;9.566;2023-04-01T00:34:06;98034.25;;;7.20;100.00
31681;BME280;18281;51.364;9.566;2023-04-01T00:36:31;98039.56;;;7.19;100.00
31681;BME280;18281;51.364;9.566;2023-04-01T00:38:57;98029.50;;;7.26;100.00
31681;BME280;18281;51.364;9.566;2023-04-01T00:41:24;98038.22;;;7.13;100.00
31681;BME280;18281;51.364;9.566;2023-04-01T00:43:51;98030.28;;;7.15;100.00
31681;BME280;18281;51.364;9.566;2023-04-01T00:46:17;98032.31;;;7.11;100.00
31681;BME280;18281;51.364;9.566;2023-04-01T00:48:46;98029.47;;;7.14;100.00
31681;BME280;18281;51.364;9.566;2023-04-01T00:51:18;98030.09;;;7.18;100.00
31681;BME280;18281;51.364;9.566;2023-04-01T00:53:48;98026.41;;;7.20;100.00
31681;BME280;18281;51.364;9.566;2023-04-01T00:56:27;98031.53;;;6.98;100.00
31681;BME280;18281;51.364;9.566;2023-04-01T00:59:01;98024.91;;;7.05;100.00
31681;BME280;18281;51.364;9.566;2023-04-01T01:01:29;98032.47;;;6.97;100.00
31681;BME280;18281;51.364;9.566;2023-04-01T01:03:55;98033.09;;;7.00;100.00
31681;BME280;18281;51.364;9.566;2023-04-01T01:06:30;98021.91;;;6.98;100.00
31681;BME280;18281;51.364;9.566;2023-04-01T01:11:41;98028.97;;;7.09;100.00
31681;BME280;18281;51.364;9.566;2023-04-01T01:16:49;98023.13;;;7.05;100.00
31681;BME280;18281;51.364;9.566;2023-04-01T01:27:28;98024.91;;;7.05;100.00
31681;BME280;18281;51.364;9.566;2023-04-01T01:33:08;98020.13;;;6.99;100.00
31681;BME280;18281;51.364;9.566;2023-04-01T01:35:50;98016.59;;;7.00;100.00
31681;BME280;18281;51.364;9.566;2023-04-01T01:38:27;98020.75;;;7.02;100.00
31681;BME280;18281;51.364;9.566;2023-04-01T01:40:56;98013.66;;;7.04;100.00
31681;BME280;18281;51.364;9.566;2023-04-01T01:43:30;98005.75;;;6.93;100.00
31681;BME280;18281;51.364;9.566;2023-04-01T01:45:59;98007.59;;;7.04;100.00
31681;BME280;18281;51.364;9.566;2023-04-01T01:48:27;98013.41;;;6.96;100.00
31681;BME280;18281;51.364;9.566;2023-04-01T01:50:54;98021.31;;;6.95;100.00
31681;BME280;18281;51.364;9.566;2023-04-01T01:53:19;98007.31;;;6.96;100.00
31681;BME280;18281;51.364;9.566;2023-04-01T01:55:46;98008.69;;;6.88;100.00
31681;BME280;18281;51.364;9.566;2023-04-01T01:58:28;98010.53;;;6.75;100.00
31681;BME280;18281;51.364;9.566;2023-04-01T02:00:57;98017.81;;;6.83;100.00
31681;BME280;18281;51.364;9.566;2023-04-01T02:03:26;98007.69;;;6.78;100.00
31681;BME280;18281;51.364;9.566;2023-04-01T02:05:55;98010.44;;;6.64;100.00
31681;BME280;18281;51.364;9.566;2023-04-01T02:08:25;98010.94;;;6.69;100.00
31681;BME280;18281;51.364;9.566;2023-04-01T02:11:01;98007.38;;;6.83;100.00
31681;BME280;18281;51.364;9.566;2023-04-01T02:14:07;98007.91;;;6.75;100.00
31681;BME280;18281;51.364;9.566;2023-04-01T02:16:51;97998.47;;;6.85;100.00
31681;BME280;18281;51.364;9.566;2023-04-01T02:19:20;97997.22;;;6.91;100.00
31681;BME280;18281;51.364;9.566;2023-04-01T02:21:50;98010.78;;;6.83;100.00
31681;BME280;18281;51.364;9.566;2023-04-01T02:24:19;98009.13;;;6.82;100.00
31681;BME280;18281;51.364;9.566;2023-04-01T02:26:49;98007.28;;;6.71;100.00
31681;BME280;18281;51.364;9.566;2023-04-01T02:29:18;98002.25;;;6.81;100.00
31681;BME280;18281;51.364;9.566;2023-04-01T02:31:45;98004.97;;;6.80;100.00
31681;BME280;18281;51.364;9.566;2023-04-01T02:34:10;98007.63;;;6.67;100.00
31681;BME280;18281;51.364;9.566;2023-04-01T02:36:36;98004.69;;;6.71;100.00
31681;BME280;18281;51.364;9.566;2023-04-01T02:39:03;98005.41;;;6.73;100.00
31681;BME280;18281;51.364;9.566;2023-04-01T02:41:30;98000.63;;;6.67;100.00
31681;BME280;18281;51.364;9.566;2023-04-01T02:43:56;98006.13;;;6.76;100.00
31681;BME280;18281;51.364;9.566;2023-04-01T02:46:25;98009.84;;;6.84;100.00
31681;BME280;18281;51.364;9.566;2023-04-01T02:48:50;98006.00;;;6.77;100.00
31681;BME280;18281;51.364;9.566;2023-04-01T02:51:16;98005.91;;;6.79;100.00
31681;BME280;18281;51.364;9.566;2023-04-01T02:53:41;98015.94;;;6.72;100.00
31681;BME280;18281;51.364;9.566;2023-04-01T02:56:06;98009.34;;;6.79;100.00
31681;BME280;18281;51.364;9.566;2023-04-01T02:58:32;98019.63;;;6.69;100.00
31681;BME280;18281;51.364;9.566;2023-04-01T03:00:57;98018.16;;;6.65;100.00
31681;BME280;18281;51.364;9.566;2023-04-01T03:03:23;98022.50;;;6.78;100.00
31681;BME280;18281;51.364;9.566;2023-04-01T03:05:48;98020.88;;;6.64;100.00
31681;BME280;18281;51.364;9.566;2023-04-01T03:08:13;98028.22;;;6.83;100.00
31681;BME280;18281;51.364;9.566;2023-04-01T03:10:39;98022.50;;;6.78;100.00
31681;BME280;18281;51.364;9.566;2023-04-01T03:13:05;98026.81;;;6.66;100.00
31681;BME280;18281;51.364;9.566;2023-04-01T03:15:31;98022.03;;;6.60;100.00
31681;BME280;18281;51.364;9.566;2023-04-01T03:17:56;98022.72;;;6.74;100.00
31681;BME280;18281;51.364;9.566;2023-04-01T03:20:22;98026.09;;;6.64;100.00
31681;BME280;18281;51.364;9.566;2023-04-01T03:22:47;98019.78;;;6.79;100.00
31681;BME280;18281;51.364;9.566;2023-04-01T03:25:12;98023.47;;;6.64;100.00
31681;BME280;18281;51.364;9.566;2023-04-01T03:27:38;98025.22;;;6.76;100.00
31681;BME280;18281;51.364;9.566;2023-04-01T03:30:05;98016.28;;;6.67;100.00
31681;BME280;18281;51.364;9.566;2023-04-01T03:32:34;98025.38;;;6.62;100.00
31681;BME280;18281;51.364;9.566;2023-04-01T03:35:00;98018.25;;;6.64;100.00
31681;BME280;18281;51.364;9.566;2023-04-01T03:37:25;98019.63;;;6.69;100.00
31681;BME280;18281;51.364;9.566;2023-04-01T03:39:51;98023.59;;;6.62;100.00
31681;BME280;18281;51.364;9.566;2023-04-01T03:42:16;98012.63;;;6.70;100.00
31681;BME280;18281;51.364;9.566;2023-04-01T03:44:42;98017.66;;;6.60;100.00
31681;BME280;18281;51.364;9.566;2023-04-01T03:47:07;98026.66;;;6.56;100.00
31681;BME280;18281;51.364;9.566;2023-04-01T03:49:34;98025.03;;;6.66;100.00
31681;BME280;18281;51.364;9.566;2023-04-01T03:51:59;98025.03;;;6.66;100.00
31681;BME280;18281;51.364;9.566;2023-04-01T03:54:25;98022.03;;;6.60;100.00
31681;BME280;18281;51.364;9.566;2023-04-01T03:56:50;98023.16;;;6.68;100.00
31681;BME280;18281;51.364;9.566;2023-04-01T03:59:16;98028.16;;;6.71;100.00
31681;BME280;18281;51.364;9.566;2023-04-01T04:01:41;98022.72;;;6.74;100.00
31681;BME280;18281;51.364;9.566;2023-04-01T04:04:07;98029.94;;;6.71;100.00
31681;BME280;18281;51.364;9.566;2023-04-01T04:06:33;98022.50;;;6.78;100.00
31681;BME280;18281;51.364;9.566;2023-04-01T04:08:58;98022.94;;;6.71;100.00
31681;BME280;18281;51.364;9.566;2023-04-01T04:11:23;98030.25;;;6.66;100.00
31681;BME280;18281;51.364;9.566;2023-04-01T04:13:49;98021.50;;;6.67;100.00
31681;BME280;18281;51.364;9.566;2023-04-01T04:16:15;98023.59;;;6.62;100.00
31681;BME280;18281;51.364;9.566;2023-04-01T04:18:41;98029.19;;;6.69;100.00
31681;BME280;18281;51.364;9.566;2023-04-01T04:21:06;98030.38;;;6.65;100.00
31681;BME280;18281;51.364;9.566;2023-04-01T04:23:32;98023.59;;;6.62;100.00
31681;BME280;18281;51.364;9.566;2023-04-01T04:26:07;98036.00;;;6.58;100.00
31681;BME280;18281;51.364;9.566;2023-04-01T04:28:33;98028.81;;;6.62;100.00
31681;BME280;18281;51.364;9.566;2023-04-01T04:30:59;98021.59;;;6.66;100.00
31681;BME280;18281;51.364;9.566;2023-04-01T04:33:25;98026.53;;;6.57;100.00
31681;BME280;18281;51.364;9.566;2023-04-01T04:35:51;98026.97;;;6.51;100.00
31681;BME280;18281;51.364;9.566;2023-04-01T04:38:19;98022.31;;;6.68;100.00
31681;BME280;18281;51.364;9.566;2023-04-01T04:40:45;98024.84;;;6.69;100.00
31681;BME280;18281;51.364;9.566;2023-04-01T04:43:11;98033.59;;;6.68;100.00
31681;BME280;18281;51.364;9.566;2023-04-01T04:45:37;98035.28;;;6.69;100.00
31681;BME280;18281;51.364;9.566;2023-04-01T04:48:03;98037.28;;;6.53;100.00
31681;BME280;18281;51.364;9.566;2023-04-01T04:50:28;98034.59;;;6.42;100.00
31681;BME280;18281;51.364;9.566;2023-04-01T04:52:54;98037.38;;;6.51;100.00
31681;BME280;18281;51.364;9.566;2023-04-01T04:55:20;98035.91;;;6.60;100.00
31681;BME280;18281;51.364;9.566;2023-04-01T04:57:45;98037.47;;;6.63;100.00
31681;BME280;18281;51.364;9.566;2023-04-01T05:00:11;98031.94;;;6.54;100.00
31681;BME280;18281;51.364;9.566;2023-04-01T05:02:36;98038.31;;;6.50;100.00
31681;BME280;18281;51.364;9.566;2023-04-01T05:05:02;98039.78;;;6.54;100.00
31681;BME280;18281;51.364;9.566;2023-04-01T05:07:27;98034.66;;;6.53;100.00
31681;BME280;18281;51.364;9.566;2023-04-01T05:09:53;98041.91;;;6.49;100.00
31681;BME280;18281;51.364;9.566;2023-04-01T05:12:18;98043.81;;;6.58;100.00
31681;BME280;18281;51.364;9.566;2023-04-01T05:14:43;98045.75;;;7.18;100.00
31681;BME280;18281;51.364;9.566;2023-04-01T05:17:10;98047.75;;;7.50;100.00
31681;BME280;18281;51.364;9.566;2023-04-01T05:19:36;98039.25;;;7.70;100.00
31681;BME280;18281;51.364;9.566;2023-04-01T05:22:01;98038.44;;;7.93;100.00
31681;BME280;18281;51.364;9.566;2023-04-01T05:24:27;98038.44;;;7.70;100.00
31681;BME280;18281;51.364;9.566;2023-04-01T05:26:52;98033.03;;;7.49;100.00
31681;BME280;18281;51.364;9.566;2023-04-01T05:29:17;98037.44;;;7.24;100.00
31681;BME280;18281;51.364;9.566;2023-04-01T05:31:42;98036.41;;;7.02;100.00
31681;BME280;18281;51.364;9.566;2023-04-01T05:34:08;98042.69;;;7.00;100.00
31681;BME280;18281;51.364;9.566;2023-04-01T05:36:33;98029.22;;;6.93;100.00
31681;BME280;18281;51.364;9.566;2023-04-01T05:38:59;98040.41;;;6.82;100.00
31681;BME280;18281;51.364;9.566;2023-04-01T05:41:25;98047.97;;;6.74;100.00
31681;BME280;18281;51.364;9.566;2023-04-01T05:43:50;98041.31;;;6.70;100.00
31681;BME280;18281;51.364;9.566;2023-04-01T05:46:16;98049.00;;;6.71;100.00
31681;BME280;18281;51.364;9.566;2023-04-01T05:48:41;98048.69;;;6.76;100.00
31681;BME280;18281;51.364;9.566;2023-04-01T05:51:15;98049.84;;;6.72;100.00
31681;BME280;18281;51.364;9.566;2023-04-01T05:53:41;98046.84;;;6.65;100.00
31681;BME280;18281;51.364;9.566;2023-04-01T05:56:06;98049.25;;;6.55;100.00
31681;BME280;18281;51.364;9.566;2023-04-01T05:58:34;98053.94;;;6.63;100.00
31681;BME280;18281;51.364;9.566;2023-04-01T06:01:05;98059.28;;;6.62;100.00
31681;BME280;18281;51.364;9.566;2023-04-01T06:03:30;98063.09;;;6.69;100.00
31681;BME280;18281;51.364;9.566;2023-04-01T06:05:56;98058.41;;;6.61;100.00
31681;BME280;18281;51.364;9.566;2023-04-01T06:08:21;98060.59;;;6.67;100.00
31681;BME280;18281;51.364;9.566;2023-04-01T06:15:53;98053.78;;;6.53;100.00
31681;BME280;18281;51.364;9.566;2023-04-01T06:18:33;98066.06;;;6.51;100.00
31681;BME280;18281;51.364;9.566;2023-04-01T06:21:07;98067.81;;;6.64;100.00
31681;BME280;18281;51.364;9.566;2023-04-01T06:26:36;98067.81;;;6.64;100.00
31681;BME280;18281;51.364;9.566;2023-04-01T06:29:40;98062.81;;;6.61;100.00
31681;BME280;18281;51.364;9.566;2023-04-01T06:35:31;98062.63;;;6.51;100.00
31681;BME280;18281;51.364;9.566;2023-04-01T06:41:54;98070.97;;;6.56;100.00
31681;BME280;18281;51.364;9.566;2023-04-01T06:46:36;98068.91;;;6.48;100.00
31681;BME280;18281;51.364;9.566;2023-04-01T06:52:18;98075.44;;;6.54;100.00
31681;BME280;18281;51.364;9.566;2023-04-01T06:55:52;98069.59;;;6.63;100.00
31681;BME280;18281;51.364;9.566;2023-04-01T06:57:49;98074.06;;;6.61;100.00
31681;BME280;18281;51.364;9.566;2023-04-01T07:00:37;98069.09;;;6.45;100.00
31681;BME280;18281;51.364;9.566;2023-04-01T07:03:14;98077.22;;;6.53;100.00
31681;BME280;18281;51.364;9.566;2023-04-01T07:05:42;98074.06;;;6.61;100.00
31681;BME280;18281;51.364;9.566;2023-04-01T07:08:20;98073.16;;;6.49;100.00
31681;BME280;18281;51.364;9.566;2023-04-01T07:11:06;98076.19;;;6.56;100.00
31681;BME280;18281;51.364;9.566;2023-04-01T07:13:41;98074.81;;;6.63;100.00
31681;BME280;18281;51.364;9.566;2023-04-01T07:16:20;98076.59;;;6.50;100.00
31681;BME280;18281;51.364;9.566;2023-04-01T07:18:53;98079.31;;;6.48;100.00
31681;BME280;18281;51.364;9.566;2023-04-01T07:21:35;98077.72;;;6.58;100.00
31681;BME280;18281;51.364;9.566;2023-04-01T07:24:09;98076.81;;;6.47;100.00
31681;BME280;18281;51.364;9.566;2023-04-01T07:26:35;98079.63;;;6.56;100.00
31681;BME280;18281;51.364;9.566;2023-04-01T07:29:01;98084.41;;;6.63;100.00
31681;BME280;18281;51.364;9.566;2023-04-01T07:34:11;98086.25;;;6.73;100.00
31681;BME280;18281;51.364;9.566;2023-04-01T07:42:06;98086.34;;;6.72;100.00
31681;BME280;18281;51.364;9.566;2023-04-01T07:44:38;98095.44;;;6.66;100.00
31681;BME280;18281;51.364;9.566;2023-04-01T07:50:40;98099.53;;;6.57;100.00
31681;BME280;18281;51.364;9.566;2023-04-01T08:04:14;98107.72;;;6.77;100.00
31681;BME280;18281;51.364;9.566;2023-04-01T08:18:50;98123.25;;;6.79;100.00
31681;BME280;18281;51.364;9.566;2023-04-01T08:21:32;98121.28;;;6.82;100.00
31681;BME280;18281;51.364;9.566;2023-04-01T08:24:02;98131.59;;;6.84;100.00
31681;BME280;18281;51.364;9.566;2023-04-01T08:26:37;98129.84;;;6.84;100.00
31681;BME280;18281;51.364;9.566;2023-04-01T08:29:36;98132.22;;;6.87;100.00
31681;BME280;18281;51.364;9.566;2023-04-01T08:32:18;98130.25;;;6.91;100.00
31681;BME280;18281;51.364;9.566;2023-04-01T08:34:47;98131.78;;;6.94;100.00
31681;BME280;18281;51.364;9.566;2023-04-01T08:37:20;98130.13;;;6.93;100.00
31681;BME280;18281;51.364;9.566;2023-04-01T08:39:51;98127.31;;;6.96;100.00
31681;BME280;18281;51.364;9.566;2023-04-01T08:42:41;98128.44;;;6.91;100.00
31681;BME280;18281;51.364;9.566;2023-04-01T08:45:56;98127.50;;;6.93;100.00
31681;BME280;18281;51.364;9.566;2023-04-01T08:51:45;98131.97;;;7.16;100.00
31681;BME280;18281;51.364;9.566;2023-04-01T08:57:04;98127.41;;;7.07;100.00
31681;BME280;18281;51.364;9.566;2023-04-01T08:59:44;98131.00;;;7.17;100.00
31681;BME280;18281;51.364;9.566;2023-04-01T09:02:16;98134.25;;;7.21;100.00
31681;BME280;18281;51.364;9.566;2023-04-01T09:07:46;98134.66;;;7.15;100.00
31681;BME280;18281;51.364;9.566;2023-04-01T09:12:59;98148.72;;;7.25;100.00
31681;BME280;18281;51.364;9.566;2023-04-01T09:15:59;98150.06;;;7.31;100.00
31681;BME280;18281;51.364;9.566;2023-04-01T09:33:20;98149.47;;;7.51;100.00
31681;BME280;18281;51.364;9.566;2023-04-01T09:35:47;98156.00;;;7.57;100.00
31681;BME280;18281;51.364;9.566;2023-04-01T09:40:56;98156.69;;;7.48;100.00
31681;BME280;18281;51.364;9.566;2023-04-01T09:43:26;98158.75;;;7.55;100.00
31681;BME280;18281;51.364;9.566;2023-04-01T09:46:10;98157.69;;;7.58;100.00
31681;BME280;18281;51.364;9.566;2023-04-01T09:48:53;98172.50;;;7.57;100.00
31681;BME280;18281;51.364;9.566;2023-04-01T09:54:08;98158.75;;;7.55;100.00
31681;BME280;18281;51.364;9.566;2023-04-01T10:05:30;98171.69;;;7.57;100.00
31681;BME280;18281;51.364;9.566;2023-04-01T10:18:58;98179.78;;;7.65;100.00
31681;BME280;18281;51.364;9.566;2023-04-01T10:44:18;98192.53;;;7.70;100.00
31681;BME280;18281;51.364;9.566;2023-04-01T10:47:30;98192.22;;;7.86;100.00
31681;BME280;18281;51.364;9.566;2023-04-01T10:53:32;98184.31;;;7.99;100.00
31681;BME280;18281;51.364;9.566;2023-04-01T11:39:30;98194.50;;;8.26;100.00
31681;BME280;18281;51.364;9.566;2023-04-01T11:44:34;98194.03;;;8.32;100.00
31681;BME280;18281;51.364;9.566;2023-04-01T11:47:13;98205.22;;;8.34;100.00
31681;BME280;18281;51.364;9.566;2023-04-01T11:50:03;98210.09;;;8.39;100.00
31681;BME280;18281;51.364;9.566;2023-04-01T11:53:10;98204.34;;;8.34;100.00
31681;BME280;18281;51.364;9.566;2023-04-01T12:01:22;98209.81;;;8.31;100.00
31681;BME280;18281;51.364;9.566;2023-04-01T12:07:13;98215.19;;;8.29;100.00
31681;BME280;18281;51.364;9.566;2023-04-01T12:09:49;98220.16;;;8.32;100.00
31681;BME280;18281;51.364;9.566;2023-04-01T12:17:31;98228.75;;;8.34;100.00
31681;BME280;18281;51.364;9.566;2023-04-01T12:20:19;98240.03;;;8.35;100.00
31681;BME280;18281;51.364;9.566;2023-04-01T12:28:41;98241.72;;;8.36;100.00
31681;BME280;18281;51.364;9.566;2023-04-01T12:30:50;98239.47;;;8.43;100.00
31681;BME280;18281;51.364;9.566;2023-04-01T12:41:53;98247.31;;;8.43;100.00
31681;BME280;18281;51.364;9.566;2023-04-01T12:44:29;98245.03;;;8.38;100.00
31681;BME280;18281;51.364;9.566;2023-04-01T12:47:43;98258.22;;;8.36;100.00
31681;BME280;18281;51.364;9.566;2023-04-01T12:53:20;98263.84;;;8.43;100.00
31681;BME280;18281;51.364;9.566;2023-04-01T12:55:48;98259.09;;;8.48;100.00
31681;BME280;18281;51.364;9.566;2023-04-01T12:58:38;98264.69;;;8.44;100.00
31681;BME280;18281;51.364;9.566;2023-04-01T13:04:25;98266.34;;;8.45;100.00
31681;BME280;18281;51.364;9.566;2023-04-01T13:21:17;98276.22;;;8.41;100.00
31681;BME280;18281;51.364;9.566;2023-04-01T13:43:15;98298.22;;;8.50;100.00
31681;BME280;18281;51.364;9.566;2023-04-01T13:52:00;98297.03;;;8.54;100.00
31681;BME280;18281;51.364;9.566;2023-04-01T14:02:51;98313.19;;;8.48;100.00
31681;BME280;18281;51.364;9.566;2023-04-01T14:08:26;98324.09;;;8.41;100.00
31681;BME280;18281;51.364;9.566;2023-04-01T14:13:31;98319.88;;;8.52;100.00
31681;BME280;18281;51.364;9.566;2023-04-01T14:16:32;98324.25;;;8.51;100.00
31681;BME280;18281;51.364;9.566;2023-04-01T14:22:18;98332.00;;;8.53;100.00
31681;BME280;18281;51.364;9.566;2023-04-01T14:27:54;98334.63;;;8.53;100.00
31681;BME280;18281;51.364;9.566;2023-04-01T14:30:36;98330.47;;;8.62;100.00
31681;BME280;18281;51.364;9.566;2023-04-01T14:41:50;98349.97;;;9.61;100.00
31681;BME280;18281;51.364;9.566;2023-04-01T14:49:51;98335.34;;;9.36;100.00
31681;BME280;18281;51.364;9.566;2023-04-01T14:54:47;98345.81;;;9.13;100.00
31681;BME280;18281;51.364;9.566;2023-04-01T15:05:39;98346.88;;;9.11;100.00
31681;BME280;18281;51.364;9.566;2023-04-01T15:10:56;98357.00;;;9.04;100.00
31681;BME280;18281;51.364;9.566;2023-04-01T15:28:32;98375.06;;;9.07;100.00
31681;BME280;18281;51.364;9.566;2023-04-01T15:34:11;98383.16;;;9.04;100.00
31681;BME280;18281;51.364;9.566;2023-04-01T15:39:16;98388.63;;;9.01;100.00
31681;BME280;18281;51.364;9.566;2023-04-01T15:47:40;98398.50;;;8.97;100.00
31681;BME280;18281;51.364;9.566;2023-04-01T15:55:39;98418.41;;;9.11;100.00
31681;BME280;18281;51.364;9.566;2023-04-01T15:58:33;98420.19;;;9.11;100.00
31681;BME280;18281;51.364;9.566;2023-04-01T16:01:44;98419.50;;;9.20;100.00
31681;BME280;18281;51.364;9.566;2023-04-01T16:07:28;98427.72;;;9.38;100.00
31681;BME280;18281;51.364;9.566;2023-04-01T16:10:36;98423.81;;;9.32;100.00
31681;BME280;18281;51.364;9.566;2023-04-01T16:18:43;98441.41;;;9.30;100.00
31681;BME280;18281;51.364;9.566;2023-04-01T16:24:22;98445.50;;;9.10;100.00
31681;BME280;18281;51.364;9.566;2023-04-01T16:27:01;98445.13;;;9.03;100.00
31681;BME280;18281;51.364;9.566;2023-04-01T16:29:43;98454.72;;;8.91;100.00
31681;BME280;18281;51.364;9.566;2023-04-01T16:34:53;98461.13;;;8.87;100.00
31681;BME280;18281;51.364;9.566;2023-04-01T16:37:28;98463.47;;;8.79;100.00
31681;BME280;18281;51.364;9.566;2023-04-01T16:40:11;98477.31;;;8.81;100.00
31681;BME280;18281;51.364;9.566;2023-04-01T16:45:42;98475.00;;;8.77;100.00
31681;BME280;18281;51.364;9.566;2023-04-01T16:48:35;98477.50;;;8.78;100.00
31681;BME280;18281;51.364;9.566;2023-04-01T16:51:24;98485.09;;;8.70;100.00
31681;BME280;18281;51.364;9.566;2023-04-01T16:54:05;98492.22;;;8.68;100.00
31681;BME280;18281;51.364;9.566;2023-04-01T16:56:43;98494.69;;;9.18;100.00
31681;BME280;18281;51.364;9.566;2023-04-01T17:02:13;98505.69;;;9.70;100.00
31681;BME280;18281;51.364;9.566;2023-04-01T17:08:02;98508.81;;;9.98;100.00
31681;BME280;18281;51.364;9.566;2023-04-01T17:10:52;98512.53;;;9.95;100.00
31681;BME280;18281;51.364;9.566;2023-04-01T17:21:49;98533.03;;;9.19;100.00
31681;BME280;18281;51.364;9.566;2023-04-01T17:35:42;98565.66;;;8.65;100.00
31681;BME280;18281;51.364;9.566;2023-04-01T17:41:13;98568.63;;;8.47;100.00
31681;BME280;18281;51.364;9.566;2023-04-01T17:49:29;98582.47;;;8.49;100.00
31681;BME280;18281;51.364;9.566;2023-04-01T17:52:27;98591.88;;;8.39;100.00
31681;BME280;18281;51.364;9.566;2023-04-01T17:57:52;98597.31;;;8.36;100.00
31681;BME280;18281;51.364;9.566;2023-04-01T18:06:36;98618.53;;;8.18;100.00
31681;BME280;18281;51.364;9.566;2023-04-01T18:15:02;98628.34;;;8.15;100.00
31681;BME280;18281;51.364;9.566;2023-04-01T18:17:55;98630.84;;;8.16;100.00
31681;BME280;18281;51.364;9.566;2023-04-01T18:26:12;98648.63;;;8.11;100.00
31681;BME280;18281;51.364;9.566;2023-04-01T18:28:43;98656.47;;;8.11;100.00
31681;BME280;18281;51.364;9.566;2023-04-01T18:31:19;98651.56;;;8.06;100.00
31681;BME280;18281;51.364;9.566;2023-04-01T18:33:50;98662.75;;;8.08;100.00
31681;BME280;18281;51.364;9.566;2023-04-01T18:36:38;98663.88;;;8.04;100.00
31681;BME280;18281;51.364;9.566;2023-04-01T18:39:17;98672.75;;;8.02;100.00
31681;BME280;18281;51.364;9.566;2023-04-01T18:44:34;98693.88;;;7.99;100.00
31681;BME280;18281;51.364;9.566;2023-04-01T18:47:27;98681.94;;;8.73;100.00
31681;BME280;18281;51.364;9.566;2023-04-01T18:50:19;98689.56;;;8.89;100.00
31681;BME280;18281;51.364;9.566;2023-04-01T18:52:49;98687.34;;;8.83;100.00
31681;BME280;18281;51.364;9.566;2023-04-01T18:57:49;98709.34;;;8.42;100.00
31681;BME280;18281;51.364;9.566;2023-04-01T19:00:21;98710.34;;;8.27;100.00
31681;BME280;18281;51.364;9.566;2023-04-01T19:03:31;98713.38;;;8.20;100.00
31681;BME280;18281;51.364;9.566;2023-04-01T19:05:49;98724.97;;;8.16;100.00
31681;BME280;18281;51.364;9.566;2023-04-01T19:08:26;98727.25;;;8.08;100.00
31681;BME280;18281;51.364;9.566;2023-04-01T19:11:35;98732.97;;;8.00;100.00
31681;BME280;18281;51.364;9.566;2023-04-01T19:14:06;98743.75;;;7.96;100.00
31681;BME280;18281;51.364;9.566;2023-04-01T19:27:33;98763.66;;;7.84;100.00
31681;BME280;18281;51.364;9.566;2023-04-01T19:30:23;98757.88;;;7.79;100.00
31681;BME280;18281;51.364;9.566;2023-04-01T19:35:39;98771.78;;;7.79;100.00
31681;BME280;18281;51.364;9.566;2023-04-01T19:40:58;98770.63;;;7.70;100.00
31681;BME280;18281;51.364;9.566;2023-04-01T19:49:28;98778.28;;;7.59;100.00
31681;BME280;18281;51.364;9.566;2023-04-01T19:52:23;98786.88;;;7.61;100.00
31681;BME280;18281;51.364;9.566;2023-04-01T19:55:21;98786.09;;;7.59;100.00
31681;BME280;18281;51.364;9.566;2023-04-01T19:58:00;98795.63;;;7.60;100.00
31681;BME280;18281;51.364;9.566;2023-04-01T20:00:34;98797.63;;;7.56;100.00
31681;BME280;18281;51.364;9.566;2023-04-01T20:13:47;98818.06;;;7.50;100.00
31681;BME280;18281;51.364;9.566;2023-04-01T20:16:15;98826.16;;;7.45;100.00
31681;BME280;18281;51.364;9.566;2023-04-01T20:18:55;98831.56;;;7.42;100.00
31681;BME280;18281;51.364;9.566;2023-04-01T20:21:36;98838.66;;;7.40;100.00
31681;BME280;18281;51.364;9.566;2023-04-01T20:24:23;98836.03;;;7.40;100.00
31681;BME280;18281;51.364;9.566;2023-04-01T20:27:00;98844.16;;;7.35;100.00
31681;BME280;18281;51.364;9.566;2023-04-01T20:29:35;98849.28;;;7.37;100.00
31681;BME280;18281;51.364;9.566;2023-04-01T20:37:44;98862.53;;;7.34;100.00
31681;BME280;18281;51.364;9.566;2023-04-01T20:40:32;98869.50;;;7.33;100.00
31681;BME280;18281;51.364;9.566;2023-04-01T20:43:07;98868.88;;;7.30;100.00
31681;BME280;18281;51.364;9.566;2023-04-01T20:45:51;98869.81;;;7.29;100.00
31681;BME280;18281;51.364;9.566;2023-04-01T20:51:03;98877.78;;;7.26;100.00
31681;BME280;18281;51.364;9.566;2023-04-01T20:53:51;98879.69;;;7.23;100.00
31681;BME280;18281;51.364;9.566;2023-04-01T20:56:37;98882.63;;;7.17;100.00
31681;BME280;18281;51.364;9.566;2023-04-01T21:02:30;98888.63;;;7.19;100.00
31681;BME280;18281;51.364;9.566;2023-04-01T21:07:50;98894.66;;;7.20;100.00
31681;BME280;18281;51.364;9.566;2023-04-01T21:10:40;98902.78;;;7.15;100.00
31681;BME280;18281;51.364;9.566;2023-04-01T21:21:37;98918.59;;;6.98;100.00
31681;BME280;18281;51.364;9.566;2023-04-01T21:27:20;98928.69;;;7.18;100.00
31681;BME280;18281;51.364;9.566;2023-04-01T21:30:29;98942.84;;;7.14;100.00
31681;BME280;18281;51.364;9.566;2023-04-01T21:33:12;98947.41;;;7.11;100.00
31681;BME280;18281;51.364;9.566;2023-04-01T21:46:49;98975.25;;;6.96;100.00
31681;BME280;18281;51.364;9.566;2023-04-01T21:49:35;98973.41;;;6.82;100.00